Airfield :







YOU CAN JOIN US ON...

 
LOGIN :

Register | Disclaimer

   EN    FR    IT 

 









Legend :    VFR   Marginal VFR   IFR   Intensive IFR   Very Intensive IFR
Visi :
Ceiling :
>= 8 km
>= 3000ft
5 to 8 km
1000 to 3000 ft
1500m to 5 km
500 to 1000 ft
800 to 1500m
200 to 500 ft
< 800m
< 200 ft
Symbols :   Thunderstorms  Fog  Heavy snow  Heavy precipitations  Wind > 20 kt






- Airport Elevation : 1166 ft


KMPV - Edward F Knapp State

CURRENT METAR :
  • 231651Z AUTO 31007KT 10SM FEW042 BKN060 14/06 A2986 RMK AO2 SLP115 T01390061

EXPIRED METARs :
  • 231551Z AUTO 36006KT 10SM FEW039 FEW047 BKN060 13/07 A2986 RMK AO2 SLP114 T01330067
  • 231451Z AUTO 31004KT 10SM CLR 13/08 A2986 RMK AO2 SLP116 T01280083 53005

TAF KMPV
Valid from the 23 at 18:00 until the 24 at 18:00 UTC


231723Z 2318/2418 30008KT P6SM SCT040
FM232200 26006KT P6SM FEW200
FM240700 22005KT P6SM FEW180
FM241600 19010KT P6SM SCT070



MET'MAP, your aeronautical weather chart ! - Copyright ORBIFLY December 2007 - Disclaimer

ORBIFLY MET'MAP TEAM :

Programming & Development : Alexandra Zaïnal
Concept & Development : Baudouin d'Aumeries
Co-Development & Prog : Marc-Olivier Méhu
Technical & hardware support : Manuel Goepfert

Contact : metmap@orbifly.com




SOURCES & CREDITS :

   NOAA